KSAN/SAN METAR and TAF weather

Enter ICAO airport designator
Station Type Date Time Source
KSAN METAR 2022/12/04 12:51 UTC NOAA

KSAN 041251Z 00000KT 5SM BR FEW002 11/10 A3010 RMK AO2 SLP192 T01110100


Station Type Date Time Source
KSAN Decoded METAR 2022/12/04 12:51 UTC NOAA

SAN DIEGO INTERNATIONAL \LINDBERGH FLD, CA, United States (KSAN) 32-44N 117-11W 12M
Dec 04, 2022 - 07:51 AM EST / 2022.12.04 1251 UTC
Wind: Calm:0
Visibility: 5 mile(s):0
Sky conditions: mostly clear
Weather: mist
Temperature: 52.0 F (11.1 C)
Dew Point: 50.0 F (10.0 C)
Relative Humidity: 92%
Pressure (altimeter): 30.1 in. Hg (1019 hPa)
ob: KSAN 041251Z 00000KT 5SM BR FEW002 11/10 A3010 RMK AO2 SLP192 T01110100
cycle: 13

Station Type Date Time Source
KSAN TAF 2022/12/04 12:48 UTC NOAA

TAF KSAN 041147Z 0412/0518 VRB03KT 5SM BR BKN007
TEMPO 0412/0416 1SM BR BKN004
FM041800 30007KT P6SM SCT010 BKN050 BKN250
FM050200 34005KT P6SM BKN035
FM050500 VRB04KT P6SM VCSH BKN020
FM051700 VRB05KT P6SM BKN030

Example: see airport list